KCSM/CSM METAR and TAF weather

Enter ICAO airport designator
Station Type Date Time Source
KCSM METAR 2018/07/21 22:53 UTC NOAA

KCSM 212253Z AUTO 07007KT 050V110 10SM CLR 41/14 A2995 RMK AO2 SLP109 T04060139


Station Type Date Time Source
KCSM Decoded METAR 2018/07/21 22:53 UTC NOAA

CLINTON-SHERMAN AIRPORT, OK, United States (KCSM) 35-21E 99-12W 588M
Jul 21, 2018 - 06:53 PM EDT / 2018.07.21 2253 UTC
Wind: from the ENE (070 degrees) at 8 MPH (7 KT) (direction variable):0
Visibility: 10 mile(s):0
Sky conditions: clear
Temperature: 105.1 F (40.6 C)
Heat index: 104.5 F (40.3 C):1
Dew Point: 57.0 F (13.9 C)
Relative Humidity: 20%
Pressure (altimeter): 29.95 in. Hg (1014 hPa)
ob: KCSM 212253Z AUTO 07007KT 050V110 10SM CLR 41/14 A2995 RMK AO2 SLP109 T04060139
cycle: 23

Station Type Date Time Source
KCSM TAF 2018/07/21 18:34 UTC NOAA

TAF KCSM 211731Z 2118/2218 04008KT P6SM FEW150 SCT250
FM212300 09008KT P6SM SCT250


Example: see airport list